sensor_id;sensor_type;location;lat;lon;timestamp;pressure;altitude;pressure_sealevel;temperature;humidity
52745;BME280;38637;49.984;20.426;2023-07-31T00:00:05;98894.47;;;18.90;88.36
52745;BME280;38637;49.984;20.426;2023-07-31T00:02:30;98886.19;;;18.90;88.05
52745;BME280;38637;49.984;20.426;2023-07-31T00:04:56;98883.41;;;18.90;88.15
52745;BME280;38637;49.984;20.426;2023-07-31T00:07:21;98880.16;;;18.88;88.42
52745;BME280;38637;49.984;20.426;2023-07-31T00:09:47;98883.25;;;18.86;88.35
52745;BME280;38637;49.984;20.426;2023-07-31T00:12:12;98881.31;;;18.87;88.10
52745;BME280;38637;49.984;20.426;2023-07-31T00:14:37;98884.72;;;18.83;88.47
52745;BME280;38637;49.984;20.426;2023-07-31T00:17:03;98884.44;;;18.76;88.97
52745;BME280;38637;49.984;20.426;2023-07-31T00:19:28;98876.78;;;18.73;88.72
52745;BME280;38637;49.984;20.426;2023-07-31T00:21:54;98876.78;;;18.73;88.55
52745;BME280;38637;49.984;20.426;2023-07-31T00:24:19;98878.06;;;18.76;88.29
52745;BME280;38637;49.984;20.426;2023-07-31T00:26:44;98875.28;;;18.76;88.08
52745;BME280;38637;49.984;20.426;2023-07-31T00:29:09;98878.06;;;18.76;87.94
52745;BME280;38637;49.984;20.426;2023-07-31T00:31:35;98884.44;;;18.76;87.83
52745;BME280;38637;49.984;20.426;2023-07-31T00:34:00;98885.09;;;18.73;88.22
52745;BME280;38637;49.984;20.426;2023-07-31T00:36:25;98881.63;;;18.68;88.78
52745;BME280;38637;49.984;20.426;2023-07-31T00:38:50;98891.41;;;18.65;88.82
52745;BME280;38637;49.984;20.426;2023-07-31T00:41:16;98886.19;;;18.64;89.07
52745;BME280;38637;49.984;20.426;2023-07-31T00:43:41;98891.25;;;18.62;89.11
52745;BME280;38637;49.984;20.426;2023-07-31T00:46:06;98880.03;;;18.49;89.74
52745;BME280;38637;49.984;20.426;2023-07-31T00:48:32;98891.25;;;18.53;89.75
52745;BME280;38637;49.984;20.426;2023-07-31T00:50:58;98884.09;;;18.52;89.89
52745;BME280;38637;49.984;20.426;2023-07-31T00:53:24;98879.38;;;18.44;90.35
52745;BME280;38637;49.984;20.426;2023-07-31T00:55:50;98890.09;;;18.45;90.43
52745;BME280;38637;49.984;20.426;2023-07-31T00:58:15;98896.78;;;18.44;90.65
52745;BME280;38637;49.984;20.426;2023-07-31T01:00:41;98881.19;;;18.40;91.03
52745;BME280;38637;49.984;20.426;2023-07-31T01:03:06;98887.81;;;18.38;90.92
52745;BME280;38637;49.984;20.426;2023-07-31T01:08:21;98881.97;;;18.31;91.14
52745;BME280;38637;49.984;20.426;2023-07-31T01:10:54;98891.22;;;18.35;90.75
52745;BME280;38637;49.984;20.426;2023-07-31T01:13:21;98884.59;;;18.36;90.81
52745;BME280;38637;49.984;20.426;2023-07-31T01:15:46;98893.53;;;18.33;90.81
52745;BME280;38637;49.984;20.426;2023-07-31T01:18:11;98898.88;;;18.30;90.89
52745;BME280;38637;49.984;20.426;2023-07-31T01:20:37;98878.88;;;18.24;90.69
52745;BME280;38637;49.984;20.426;2023-07-31T01:28:27;98885.72;;;18.35;90.25
52745;BME280;38637;49.984;20.426;2023-07-31T01:30:58;98897.56;;;18.36;90.28
52745;BME280;38637;49.984;20.426;2023-07-31T01:33:25;98904.25;;;18.35;90.52
52745;BME280;38637;49.984;20.426;2023-07-31T01:35:51;98900.69;;;18.34;90.40
52745;BME280;38637;49.984;20.426;2023-07-31T01:38:20;98897.25;;;18.37;90.23
52745;BME280;38637;49.984;20.426;2023-07-31T01:40:51;98899.69;;;18.39;90.42
52745;BME280;38637;49.984;20.426;2023-07-31T01:43:16;98899.03;;;18.42;90.15
52745;BME280;38637;49.984;20.426;2023-07-31T01:45:42;98896.78;;;18.44;90.03
52745;BME280;38637;49.984;20.426;2023-07-31T01:48:07;98898.06;;;18.47;89.96
52745;BME280;38637;49.984;20.426;2023-07-31T01:50:32;98893.69;;;18.46;90.35
52745;BME280;38637;49.984;20.426;2023-07-31T01:52:57;98901.34;;;18.49;90.29
52745;BME280;38637;49.984;20.426;2023-07-31T01:55:23;98906.53;;;18.50;90.45
52745;BME280;38637;49.984;20.426;2023-07-31T01:57:48;98897.91;;;18.52;90.79
52745;BME280;38637;49.984;20.426;2023-07-31T02:00:13;98894.00;;;18.53;90.57
52745;BME280;38637;49.984;20.426;2023-07-31T02:02:39;98906.03;;;18.57;90.69
52745;BME280;38637;49.984;20.426;2023-07-31T02:05:05;98896.94;;;18.56;91.05
52745;BME280;38637;49.984;20.426;2023-07-31T02:07:30;98898.22;;;18.59;90.81
52745;BME280;38637;49.984;20.426;2023-07-31T02:09:55;98906.84;;;18.66;90.96
52745;BME280;38637;49.984;20.426;2023-07-31T02:12:21;98905.06;;;18.70;90.67
52745;BME280;38637;49.984;20.426;2023-07-31T02:14:46;98903.28;;;18.74;90.59
52745;BME280;38637;49.984;20.426;2023-07-31T02:17:11;98904.25;;;18.78;90.40
52745;BME280;38637;49.984;20.426;2023-07-31T02:19:36;98903.28;;;18.83;90.37
52745;BME280;38637;49.984;20.426;2023-07-31T02:22:02;98916.13;;;18.88;90.42
52745;BME280;38637;49.984;20.426;2023-07-31T02:24:27;98905.88;;;18.88;90.24
52745;BME280;38637;49.984;20.426;2023-07-31T02:26:53;98918.72;;;18.93;90.32
52745;BME280;38637;49.984;20.426;2023-07-31T02:29:18;98922.78;;;18.95;90.08
52745;BME280;38637;49.984;20.426;2023-07-31T02:31:43;98927.69;;;18.98;89.78
52745;BME280;38637;49.984;20.426;2023-07-31T02:34:09;98932.56;;;19.01;89.88
52745;BME280;38637;49.984;20.426;2023-07-31T02:36:34;98926.69;;;19.03;89.77
52745;BME280;38637;49.984;20.426;2023-07-31T02:38:59;98934.66;;;19.04;89.89
52745;BME280;38637;49.984;20.426;2023-07-31T02:41:24;98937.09;;;19.06;89.65
52745;BME280;38637;49.984;20.426;2023-07-31T02:43:50;98936.63;;;19.04;89.76
52745;BME280;38637;49.984;20.426;2023-07-31T02:46:15;98939.84;;;19.06;89.67
52745;BME280;38637;49.984;20.426;2023-07-31T02:48:40;98940.66;;;19.06;89.66
52745;BME280;38637;49.984;20.426;2023-07-31T02:51:06;98941.66;;;19.11;89.44
52745;BME280;38637;49.984;20.426;2023-07-31T02:53:31;98946.38;;;19.10;89.52
52745;BME280;38637;49.984;20.426;2023-07-31T02:55:56;98943.25;;;19.12;89.41
52745;BME280;38637;49.984;20.426;2023-07-31T02:58:21;98952.38;;;19.12;89.75
52745;BME280;38637;49.984;20.426;2023-07-31T03:00:47;98953.03;;;19.09;90.83
52745;BME280;38637;49.984;20.426;2023-07-31T03:03:12;98955.50;;;19.02;94.37
52745;BME280;38637;49.984;20.426;2023-07-31T03:05:37;98953.09;;;18.92;96.31
52745;BME280;38637;49.984;20.426;2023-07-31T03:08:03;98966.56;;;18.85;97.11
52745;BME280;38637;49.984;20.426;2023-07-31T03:10:29;98967.41;;;18.76;98.82
52745;BME280;38637;49.984;20.426;2023-07-31T03:12:54;98969.69;;;18.74;99.48
52745;BME280;38637;49.984;20.426;2023-07-31T03:15:19;98967.84;;;18.70;100.00
52745;BME280;38637;49.984;20.426;2023-07-31T03:17:45;98973.41;;;18.61;100.00
52745;BME280;38637;49.984;20.426;2023-07-31T03:20:10;98978.94;;;18.61;100.00
52745;BME280;38637;49.984;20.426;2023-07-31T03:22:36;98982.81;;;18.60;100.00
52745;BME280;38637;49.984;20.426;2023-07-31T03:25:02;98976.16;;;18.61;100.00
52745;BME280;38637;49.984;20.426;2023-07-31T03:27:27;98977.44;;;18.64;100.00
52745;BME280;38637;49.984;20.426;2023-07-31T03:29:53;98982.16;;;18.63;100.00
52745;BME280;38637;49.984;20.426;2023-07-31T03:32:18;98974.84;;;18.58;100.00
52745;BME280;38637;49.984;20.426;2023-07-31T03:34:43;98986.06;;;18.62;100.00
52745;BME280;38637;49.984;20.426;2023-07-31T03:37:09;98990.81;;;18.62;100.00
52745;BME280;38637;49.984;20.426;2023-07-31T03:39:35;98988.34;;;18.60;100.00
52745;BME280;38637;49.984;20.426;2023-07-31T03:42:00;98988.03;;;18.53;100.00
52745;BME280;38637;49.984;20.426;2023-07-31T03:44:26;98992.25;;;18.50;100.00
52745;BME280;38637;49.984;20.426;2023-07-31T03:46:51;98988.31;;;18.51;100.00
52745;BME280;38637;49.984;20.426;2023-07-31T03:49:16;98988.53;;;18.55;100.00
52745;BME280;38637;49.984;20.426;2023-07-31T03:51:42;98990.63;;;18.58;100.00
52745;BME280;38637;49.984;20.426;2023-07-31T03:54:07;98981.19;;;18.59;100.00
52745;BME280;38637;49.984;20.426;2023-07-31T03:56:33;98993.88;;;18.60;99.96
52745;BME280;38637;49.984;20.426;2023-07-31T03:58:58;98996.34;;;18.62;99.61
52745;BME280;38637;49.984;20.426;2023-07-31T04:01:24;98990.63;;;18.58;99.91
52745;BME280;38637;49.984;20.426;2023-07-31T04:03:49;98990.00;;;18.61;99.78
52745;BME280;38637;49.984;20.426;2023-07-31T04:06:14;98984.94;;;18.63;99.60
52745;BME280;38637;49.984;20.426;2023-07-31T04:08:43;98989.81;;;18.66;99.13
52745;BME280;38637;49.984;20.426;2023-07-31T04:11:09;98996.00;;;18.72;98.78
52745;BME280;38637;49.984;20.426;2023-07-31T04:13:34;98994.22;;;18.76;98.79
52745;BME280;38637;49.984;20.426;2023-07-31T04:15:59;98991.47;;;18.76;98.39
52745;BME280;38637;49.984;20.426;2023-07-31T04:18:25;98997.34;;;18.83;97.89
52745;BME280;38637;49.984;20.426;2023-07-31T04:20:51;99001.41;;;18.86;97.99
52745;BME280;38637;49.984;20.426;2023-07-31T04:23:16;98998.97;;;18.93;97.47
52745;BME280;38637;49.984;20.426;2023-07-31T04:25:41;99000.75;;;18.97;97.04
52745;BME280;38637;49.984;20.426;2023-07-31T04:28:07;99004.97;;;19.03;96.79
52745;BME280;38637;49.984;20.426;2023-07-31T04:30:32;98998.31;;;19.04;96.29
52745;BME280;38637;49.984;20.426;2023-07-31T04:32:58;99000.72;;;19.15;96.37
52745;BME280;38637;49.984;20.426;2023-07-31T04:35:23;99000.06;;;19.26;95.93
52745;BME280;38637;49.984;20.426;2023-07-31T04:37:48;99003.13;;;19.42;95.19
52745;BME280;38637;49.984;20.426;2023-07-31T04:40:16;99004.03;;;19.64;94.33
52745;BME280;38637;49.984;20.426;2023-07-31T04:42:41;99016.72;;;19.82;93.45
52745;BME280;38637;49.984;20.426;2023-07-31T04:45:08;99002.97;;;19.94;92.60
52745;BME280;38637;49.984;20.426;2023-07-31T04:47:34;99009.75;;;20.14;91.25
52745;BME280;38637;49.984;20.426;2023-07-31T04:49:59;99015.19;;;20.32;89.95
52745;BME280;38637;49.984;20.426;2023-07-31T04:52:24;99020.81;;;20.44;89.22
52745;BME280;38637;49.984;20.426;2023-07-31T04:54:50;99026.19;;;20.49;87.99
52745;BME280;38637;49.984;20.426;2023-07-31T04:57:15;99027.28;;;20.57;87.35
52745;BME280;38637;49.984;20.426;2023-07-31T04:59:40;99030.22;;;20.60;86.10
52745;BME280;38637;49.984;20.426;2023-07-31T05:02:08;99043.56;;;20.67;85.59
52745;BME280;38637;49.984;20.426;2023-07-31T05:04:33;99037.34;;;20.70;84.53
52745;BME280;38637;49.984;20.426;2023-07-31T05:06:58;99031.44;;;20.72;84.07
52745;BME280;38637;49.984;20.426;2023-07-31T05:09:24;99034.63;;;20.61;83.85
52745;BME280;38637;49.984;20.426;2023-07-31T05:11:49;99034.00;;;20.56;83.60
52745;BME280;38637;49.984;20.426;2023-07-31T05:14:14;99029.56;;;20.63;83.74
52745;BME280;38637;49.984;20.426;2023-07-31T05:16:40;99032.91;;;20.69;83.75
52745;BME280;38637;49.984;20.426;2023-07-31T05:19:06;99035.38;;;20.71;83.40
52745;BME280;38637;49.984;20.426;2023-07-31T05:21:31;99040.25;;;20.74;83.28
52745;BME280;38637;49.984;20.426;2023-07-31T05:23:56;99041.72;;;20.71;82.67
52745;BME280;38637;49.984;20.426;2023-07-31T05:26:22;99043.22;;;20.69;82.99
52745;BME280;38637;49.984;20.426;2023-07-31T05:28:47;99048.63;;;20.65;83.27
52745;BME280;38637;49.984;20.426;2023-07-31T05:31:13;99051.75;;;20.63;83.31
52745;BME280;38637;49.984;20.426;2023-07-31T05:33:38;99047.22;;;20.50;84.07
52745;BME280;38637;49.984;20.426;2023-07-31T05:36:03;99053.44;;;20.47;84.12
52745;BME280;38637;49.984;20.426;2023-07-31T05:38:29;99055.13;;;20.39;85.88
52745;BME280;38637;49.984;20.426;2023-07-31T05:40:54;99054.66;;;20.29;86.06
52745;BME280;38637;49.984;20.426;2023-07-31T05:43:20;99072.97;;;20.30;85.92
52745;BME280;38637;49.984;20.426;2023-07-31T05:45:45;99066.09;;;20.27;85.16
52745;BME280;38637;49.984;20.426;2023-07-31T05:48:10;99070.84;;;20.27;85.04
52745;BME280;38637;49.984;20.426;2023-07-31T05:50:36;99069.50;;;20.33;85.10
52745;BME280;38637;49.984;20.426;2023-07-31T05:53:04;99059.50;;;20.40;84.03
52745;BME280;38637;49.984;20.426;2023-07-31T05:55:29;99067.97;;;20.44;83.24
52745;BME280;38637;49.984;20.426;2023-07-31T05:57:54;99070.13;;;20.38;82.78
52745;BME280;38637;49.984;20.426;2023-07-31T06:00:20;99068.31;;;20.42;82.49
52745;BME280;38637;49.984;20.426;2023-07-31T06:02:46;99062.78;;;20.42;83.16
52745;BME280;38637;49.984;20.426;2023-07-31T06:05:12;99069.88;;;20.61;82.67
52745;BME280;38637;49.984;20.426;2023-07-31T06:07:37;99071.72;;;20.78;81.70
52745;BME280;38637;49.984;20.426;2023-07-31T06:10:02;99063.94;;;20.92;81.18
52745;BME280;38637;49.984;20.426;2023-07-31T06:12:31;99069.44;;;21.01;81.05
52745;BME280;38637;49.984;20.426;2023-07-31T06:14:56;99072.81;;;21.06;80.69
52745;BME280;38637;49.984;20.426;2023-07-31T06:17:22;99063.13;;;20.92;80.13
52745;BME280;38637;49.984;20.426;2023-07-31T06:19:47;99058.19;;;20.76;80.07
52745;BME280;38637;49.984;20.426;2023-07-31T06:22:12;99062.53;;;20.86;80.13
52745;BME280;38637;49.984;20.426;2023-07-31T06:24:38;99069.00;;;20.90;80.70
52745;BME280;38637;49.984;20.426;2023-07-31T06:27:04;99059.00;;;20.98;81.16
52745;BME280;38637;49.984;20.426;2023-07-31T06:29:30;99054.59;;;21.18;80.75
52745;BME280;38637;49.984;20.426;2023-07-31T06:31:55;99050.03;;;21.34;80.09
52745;BME280;38637;49.984;20.426;2023-07-31T06:34:21;99048.34;;;21.42;78.39
52745;BME280;38637;49.984;20.426;2023-07-31T06:36:46;99048.63;;;21.49;76.88
52745;BME280;38637;49.984;20.426;2023-07-31T06:39:11;99044.63;;;21.71;77.51
52745;BME280;38637;49.984;20.426;2023-07-31T06:41:38;99049.25;;;21.79;75.22
52745;BME280;38637;49.984;20.426;2023-07-31T06:44:03;99047.47;;;22.08;74.05
52745;BME280;38637;49.984;20.426;2023-07-31T06:46:28;99047.97;;;22.22;72.69
52745;BME280;38637;49.984;20.426;2023-07-31T06:48:54;99045.44;;;22.41;72.63
52745;BME280;38637;49.984;20.426;2023-07-31T06:51:20;99052.94;;;22.65;73.03
52745;BME280;38637;49.984;20.426;2023-07-31T06:53:45;99066.28;;;22.72;70.67
52745;BME280;38637;49.984;20.426;2023-07-31T06:56:10;99051.38;;;22.80;68.21
52745;BME280;38637;49.984;20.426;2023-07-31T06:58:36;99060.34;;;23.26;68.80
52745;BME280;38637;49.984;20.426;2023-07-31T07:01:01;99060.19;;;23.35;67.34
52745;BME280;38637;49.984;20.426;2023-07-31T07:03:27;99053.09;;;23.09;66.54
52745;BME280;38637;49.984;20.426;2023-07-31T07:05:52;99060.94;;;23.20;68.01
52745;BME280;38637;49.984;20.426;2023-07-31T07:08:17;99057.91;;;22.84;67.10
52745;BME280;38637;49.984;20.426;2023-07-31T07:10:43;99055.13;;;22.97;68.01
52745;BME280;38637;49.984;20.426;2023-07-31T07:13:08;99056.19;;;23.20;67.27
52745;BME280;38637;49.984;20.426;2023-07-31T07:15:34;99062.22;;;23.50;65.85
52745;BME280;38637;49.984;20.426;2023-07-31T07:18:00;99054.84;;;23.42;64.50
52745;BME280;38637;49.984;20.426;2023-07-31T07:20:25;99045.97;;;23.24;63.88
52745;BME280;38637;49.984;20.426;2023-07-31T07:22:50;99051.72;;;23.03;66.12
52745;BME280;38637;49.984;20.426;2023-07-31T07:25:15;99044.97;;;22.92;67.79
52745;BME280;38637;49.984;20.426;2023-07-31T07:27:41;99047.50;;;22.57;68.20
52745;BME280;38637;49.984;20.426;2023-07-31T07:30:06;99045.31;;;22.50;68.88
52745;BME280;38637;49.984;20.426;2023-07-31T07:32:32;99051.69;;;22.26;69.46
52745;BME280;38637;49.984;20.426;2023-07-31T07:34:57;99043.78;;;22.28;69.28
52745;BME280;38637;49.984;20.426;2023-07-31T07:37:23;99059.34;;;22.29;70.44
52745;BME280;38637;49.984;20.426;2023-07-31T07:39:48;99044.47;;;22.49;69.42
52745;BME280;38637;49.984;20.426;2023-07-31T07:42:13;99048.63;;;22.56;68.33
52745;BME280;38637;49.984;20.426;2023-07-31T07:44:39;99052.47;;;22.76;66.36
52745;BME280;38637;49.984;20.426;2023-07-31T07:47:04;99053.84;;;22.82;65.55
52745;BME280;38637;49.984;20.426;2023-07-31T07:49:34;99044.94;;;23.16;64.65
52745;BME280;38637;49.984;20.426;2023-07-31T07:52:00;99050.91;;;23.59;64.93
52745;BME280;38637;49.984;20.426;2023-07-31T07:54:25;99048.94;;;23.88;62.50
52745;BME280;38637;49.984;20.426;2023-07-31T07:56:51;99046.69;;;24.09;62.21
52745;BME280;38637;49.984;20.426;2023-07-31T07:59:16;99047.94;;;24.59;61.97
52745;BME280;38637;49.984;20.426;2023-07-31T08:01:41;99048.09;;;24.66;60.48
52745;BME280;38637;49.984;20.426;2023-07-31T08:04:07;99052.94;;;24.69;60.30
52745;BME280;38637;49.984;20.426;2023-07-31T08:06:32;99052.63;;;24.55;60.85
52745;BME280;38637;49.984;20.426;2023-07-31T08:08:57;99056.03;;;24.64;60.46
52745;BME280;38637;49.984;20.426;2023-07-31T08:11:23;99051.09;;;24.93;59.93
52745;BME280;38637;49.984;20.426;2023-07-31T08:13:49;99062.53;;;24.88;59.22
52745;BME280;38637;49.984;20.426;2023-07-31T08:16:14;99066.09;;;25.04;58.12
52745;BME280;38637;49.984;20.426;2023-07-31T08:18:40;99063.25;;;24.85;58.89
52745;BME280;38637;49.984;20.426;2023-07-31T08:21:05;99073.78;;;24.91;59.36
52745;BME280;38637;49.984;20.426;2023-07-31T08:23:31;99072.56;;;24.73;59.09
52745;BME280;38637;49.984;20.426;2023-07-31T08:25:56;99073.72;;;24.88;58.85
52745;BME280;38637;49.984;20.426;2023-07-31T08:28:22;99069.25;;;25.03;58.34
52745;BME280;38637;49.984;20.426;2023-07-31T08:30:47;99072.81;;;24.84;57.64
52745;BME280;38637;49.984;20.426;2023-07-31T08:33:12;99081.00;;;24.92;58.32
52745;BME280;38637;49.984;20.426;2023-07-31T08:35:37;99080.47;;;24.87;57.58
52745;BME280;38637;49.984;20.426;2023-07-31T08:38:03;99080.72;;;24.62;57.34
52745;BME280;38637;49.984;20.426;2023-07-31T08:40:28;99070.72;;;24.96;57.94
52745;BME280;38637;49.984;20.426;2023-07-31T08:42:55;99077.09;;;25.32;57.18
52745;BME280;38637;49.984;20.426;2023-07-31T08:45:21;99080.50;;;25.41;57.38
52745;BME280;38637;49.984;20.426;2023-07-31T08:47:49;99084.09;;;25.23;57.41
52745;BME280;38637;49.984;20.426;2023-07-31T08:50:19;99090.34;;;25.00;58.67
52745;BME280;38637;49.984;20.426;2023-07-31T08:52:46;99091.44;;;24.95;58.01
52745;BME280;38637;49.984;20.426;2023-07-31T08:55:13;99089.91;;;24.98;58.32
52745;BME280;38637;49.984;20.426;2023-07-31T08:57:38;99096.78;;;24.85;58.10
52745;BME280;38637;49.984;20.426;2023-07-31T09:00:05;99095.44;;;24.79;57.60
52745;BME280;38637;49.984;20.426;2023-07-31T09:02:37;99091.16;;;24.65;57.55
52745;BME280;38637;49.984;20.426;2023-07-31T09:05:06;99088.16;;;24.74;57.69
52745;BME280;38637;49.984;20.426;2023-07-31T09:07:34;99095.31;;;24.91;57.51
52745;BME280;38637;49.984;20.426;2023-07-31T09:09:59;99095.44;;;24.79;57.35
52745;BME280;38637;49.984;20.426;2023-07-31T09:12:25;99095.06;;;24.96;57.61
52745;BME280;38637;49.984;20.426;2023-07-31T09:14:51;99090.22;;;25.12;57.10
52745;BME280;38637;49.984;20.426;2023-07-31T09:17:31;99094.78;;;25.01;57.18
52745;BME280;38637;49.984;20.426;2023-07-31T09:19:57;99090.06;;;25.05;56.78
52745;BME280;38637;49.984;20.426;2023-07-31T09:22:32;99089.72;;;24.91;54.60
52745;BME280;38637;49.984;20.426;2023-07-31T09:25:14;99093.88;;;24.62;55.46
52745;BME280;38637;49.984;20.426;2023-07-31T09:30:16;99079.59;;;25.18;54.39
52745;BME280;38637;49.984;20.426;2023-07-31T09:32:43;99083.34;;;25.26;53.40
52745;BME280;38637;49.984;20.426;2023-07-31T09:35:22;99082.97;;;25.27;53.25
52745;BME280;38637;49.984;20.426;2023-07-31T09:37:52;99093.69;;;25.25;54.00
52745;BME280;38637;49.984;20.426;2023-07-31T09:40:28;99087.25;;;25.60;53.60
52745;BME280;38637;49.984;20.426;2023-07-31T09:42:56;99080.44;;;25.80;52.12
52745;BME280;38637;49.984;20.426;2023-07-31T09:45:22;99090.97;;;25.67;52.79
52745;BME280;38637;49.984;20.426;2023-07-31T09:47:48;99086.88;;;25.61;53.53
52745;BME280;38637;49.984;20.426;2023-07-31T09:50:14;99076.88;;;25.60;52.03
52745;BME280;38637;49.984;20.426;2023-07-31T09:52:40;99079.28;;;24.88;53.40
52745;BME280;38637;49.984;20.426;2023-07-31T09:55:06;99084.56;;;24.73;55.41
52745;BME280;38637;49.984;20.426;2023-07-31T09:57:32;99078.41;;;25.19;54.00
52745;BME280;38637;49.984;20.426;2023-07-31T09:59:59;99077.16;;;25.36;53.53
52745;BME280;38637;49.984;20.426;2023-07-31T10:02:25;99079.88;;;25.52;53.55
52745;BME280;38637;49.984;20.426;2023-07-31T10:04:54;99070.59;;;25.28;52.80
52745;BME280;38637;49.984;20.426;2023-07-31T10:07:25;99071.50;;;25.32;53.41
52745;BME280;38637;49.984;20.426;2023-07-31T10:09:51;99074.19;;;25.09;53.67
52745;BME280;38637;49.984;20.426;2023-07-31T10:12:19;99075.56;;;24.99;54.42
52745;BME280;38637;49.984;20.426;2023-07-31T10:14:44;99080.56;;;25.10;54.57
52745;BME280;38637;49.984;20.426;2023-07-31T10:17:10;99081.78;;;25.28;54.72
52745;BME280;38637;49.984;20.426;2023-07-31T10:19:36;99079.44;;;25.50;53.77
52745;BME280;38637;49.984;20.426;2023-07-31T10:22:03;99071.47;;;25.71;53.95
52745;BME280;38637;49.984;20.426;2023-07-31T10:24:29;99077.81;;;25.87;53.95
52745;BME280;38637;49.984;20.426;2023-07-31T10:26:57;99066.91;;;25.82;52.54
52745;BME280;38637;49.984;20.426;2023-07-31T10:29:23;99077.31;;;25.62;53.84
52745;BME280;38637;49.984;20.426;2023-07-31T10:31:50;99069.16;;;25.15;54.48
52745;BME280;38637;49.984;20.426;2023-07-31T10:34:17;99069.63;;;24.66;54.56
52745;BME280;38637;49.984;20.426;2023-07-31T10:36:42;99066.94;;;24.38;55.66
52745;BME280;38637;49.984;20.426;2023-07-31T10:39:36;99067.47;;;24.27;57.22
52745;BME280;38637;49.984;20.426;2023-07-31T10:42:13;99062.59;;;23.93;56.91
52745;BME280;38637;49.984;20.426;2023-07-31T10:44:43;99051.09;;;23.94;57.54
52745;BME280;38637;49.984;20.426;2023-07-31T10:47:09;99047.31;;;23.87;56.76
52745;BME280;38637;49.984;20.426;2023-07-31T10:49:34;99046.75;;;23.81;57.31
52745;BME280;38637;49.984;20.426;2023-07-31T10:52:03;99041.53;;;23.79;56.73
52745;BME280;38637;49.984;20.426;2023-07-31T10:54:28;99040.81;;;23.82;55.56
52745;BME280;38637;49.984;20.426;2023-07-31T10:56:54;99036.16;;;23.58;57.84
52745;BME280;38637;49.984;20.426;2023-07-31T10:59:19;99034.63;;;23.73;56.97
52745;BME280;38637;49.984;20.426;2023-07-31T11:01:55;99026.25;;;23.89;57.23
52745;BME280;38637;49.984;20.426;2023-07-31T11:04:27;99022.03;;;24.11;57.78
52745;BME280;38637;49.984;20.426;2023-07-31T11:07:01;99026.16;;;24.17;57.56
52745;BME280;38637;49.984;20.426;2023-07-31T11:09:29;99023.09;;;24.22;56.59
52745;BME280;38637;49.984;20.426;2023-07-31T11:11:56;99006.44;;;24.26;56.31
52745;BME280;38637;49.984;20.426;2023-07-31T11:14:21;99016.97;;;24.33;55.99
52745;BME280;38637;49.984;20.426;2023-07-31T11:16:50;99009.59;;;24.40;55.16
52745;BME280;38637;49.984;20.426;2023-07-31T11:19:24;99012.47;;;24.44;52.98
52745;BME280;38637;49.984;20.426;2023-07-31T11:21:51;99002.66;;;24.34;53.65
52745;BME280;38637;49.984;20.426;2023-07-31T11:24:17;99003.72;;;24.29;55.23
52745;BME280;38637;49.984;20.426;2023-07-31T11:26:52;98999.22;;;24.41;55.33
52745;BME280;38637;49.984;20.426;2023-07-31T11:29:18;98987.44;;;24.47;54.53
52745;BME280;38637;49.984;20.426;2023-07-31T11:31:44;98990.91;;;24.60;55.02
52745;BME280;38637;49.984;20.426;2023-07-31T11:34:10;98990.56;;;24.62;54.16
52745;BME280;38637;49.984;20.426;2023-07-31T11:36:35;98985.78;;;24.62;53.65
52745;BME280;38637;49.984;20.426;2023-07-31T11:39:10;98989.31;;;24.59;52.75
52745;BME280;38637;49.984;20.426;2023-07-31T11:41:35;98980.19;;;24.82;53.13
52745;BME280;38637;49.984;20.426;2023-07-31T11:44:01;98968.88;;;24.94;50.45
52745;BME280;38637;49.984;20.426;2023-07-31T11:46:29;98992.09;;;25.14;51.30
52745;BME280;38637;49.984;20.426;2023-07-31T11:48:59;98993.38;;;25.39;50.48
52745;BME280;38637;49.984;20.426;2023-07-31T11:51:24;98991.19;;;25.72;50.34
52745;BME280;38637;49.984;20.426;2023-07-31T11:53:52;98979.81;;;26.07;49.31
52745;BME280;38637;49.984;20.426;2023-07-31T11:56:19;98982.09;;;26.01;47.14
52745;BME280;38637;49.984;20.426;2023-07-31T11:58:51;98986.41;;;26.18;47.48
52745;BME280;38637;49.984;20.426;2023-07-31T12:01:19;98980.50;;;26.50;48.54
52745;BME280;38637;49.984;20.426;2023-07-31T12:03:46;98969.06;;;26.62;47.69
52745;BME280;38637;49.984;20.426;2023-07-31T12:06:12;98975.94;;;26.68;46.14
52745;BME280;38637;49.984;20.426;2023-07-31T12:08:37;98972.81;;;26.47;45.45
52745;BME280;38637;49.984;20.426;2023-07-31T12:11:04;98976.34;;;26.67;46.08
52745;BME280;38637;49.984;20.426;2023-07-31T12:13:31;98964.63;;;26.34;45.29
52745;BME280;38637;49.984;20.426;2023-07-31T12:15:59;98965.66;;;26.23;44.92
52745;BME280;38637;49.984;20.426;2023-07-31T12:18:26;98964.06;;;26.22;45.71
52745;BME280;38637;49.984;20.426;2023-07-31T12:20:59;98954.53;;;26.53;47.33
52745;BME280;38637;49.984;20.426;2023-07-31T12:23:29;98945.84;;;26.62;45.86
52745;BME280;38637;49.984;20.426;2023-07-31T12:26:11;98945.09;;;26.38;42.81
52745;BME280;38637;49.984;20.426;2023-07-31T12:28:40;98945.47;;;26.36;44.37
52745;BME280;38637;49.984;20.426;2023-07-31T12:31:06;98953.59;;;26.45;45.41
52745;BME280;38637;49.984;20.426;2023-07-31T12:33:34;98948.22;;;26.33;45.95
52745;BME280;38637;49.984;20.426;2023-07-31T12:36:04;98935.44;;;26.05;46.79
52745;BME280;38637;49.984;20.426;2023-07-31T12:38:30;98936.19;;;26.02;46.68
52745;BME280;38637;49.984;20.426;2023-07-31T12:40:55;98936.81;;;25.69;46.99
52745;BME280;38637;49.984;20.426;2023-07-31T12:43:20;98929.47;;;25.38;46.49
52745;BME280;38637;49.984;20.426;2023-07-31T12:45:46;98928.25;;;25.16;47.88
52745;BME280;38637;49.984;20.426;2023-07-31T12:48:13;98919.63;;;25.05;48.22
52745;BME280;38637;49.984;20.426;2023-07-31T12:50:38;98929.19;;;25.24;49.43
52745;BME280;38637;49.984;20.426;2023-07-31T12:53:05;98921.69;;;25.28;48.39
52745;BME280;38637;49.984;20.426;2023-07-31T12:55:31;98919.31;;;25.30;47.73